createdAt,value
2023-02-13T00:00:54.707Z,541.20
2023-02-13T00:01:54.600Z,494.30
2023-02-13T00:02:54.577Z,607.30
2023-02-13T00:03:54.672Z,546.60
2023-02-13T00:04:54.574Z,572.20
2023-02-13T00:05:54.524Z,577.70
2023-02-13T00:06:54.504Z,567.40
2023-02-13T00:07:54.485Z,269.90
2023-02-13T00:08:54.487Z,297.20
2023-02-13T00:09:54.477Z,503.70
2023-02-13T00:10:54.458Z,230.40
2023-02-13T00:11:54.424Z,211.80
2023-02-13T00:12:54.402Z,284.90
2023-02-13T00:13:54.381Z,224.30
2023-02-13T00:14:54.397Z,291.90
2023-02-13T00:15:54.407Z,194.40
2023-02-13T00:16:54.328Z,157.60
2023-02-13T00:17:54.346Z,138.70
2023-02-13T00:18:54.298Z,155.10
2023-02-13T00:19:54.308Z,251.10
2023-02-13T00:20:54.664Z,103.40
2023-02-13T00:21:54.243Z,66.80
2023-02-13T00:22:54.216Z,84.60
2023-02-13T00:23:54.206Z,71.20
2023-02-13T00:24:54.217Z,82.90
2023-02-13T00:25:54.168Z,82.30
2023-02-13T00:26:54.151Z,63.30
2023-02-13T00:27:54.149Z,58.70
2023-02-13T00:28:54.115Z,54.30
2023-02-13T00:29:54.124Z,50.20
2023-02-13T00:30:54.149Z,44.90
2023-02-13T00:31:54.136Z,45.20
2023-02-13T00:32:54.039Z,42.60
2023-02-13T00:33:54.018Z,44.20
2023-02-13T00:34:54.030Z,40.50
2023-02-13T00:35:53.982Z,40.90
2023-02-13T00:36:53.961Z,30.80
2023-02-13T00:37:53.945Z,27.10
2023-02-13T00:38:53.937Z,25.50
2023-02-13T00:39:53.944Z,25.50
2023-02-13T00:40:53.888Z,23.60
2023-02-13T00:41:53.871Z,22.10
2023-02-13T00:42:53.875Z,25.40
2023-02-13T00:43:53.837Z,23.30
2023-02-13T00:44:53.849Z,25.00
2023-02-13T00:45:53.801Z,29.30
2023-02-13T00:46:53.772Z,27.30
2023-02-13T00:47:53.754Z,20.80
2023-02-13T00:48:53.740Z,19.90
2023-02-13T00:49:53.753Z,18.60
2023-02-13T00:50:53.696Z,23.70
2023-02-13T00:51:53.682Z,23.30
2023-02-13T00:52:53.665Z,25.70
2023-02-13T00:53:53.643Z,23.00
2023-02-13T00:54:54.360Z,23.20
2023-02-13T00:55:53.615Z,26.00
2023-02-13T00:56:53.589Z,25.00
2023-02-13T00:57:53.576Z,25.90
2023-02-13T00:58:53.555Z,24.90
2023-02-13T00:59:53.578Z,27.50
2023-02-13T01:00:53.516Z,32.00
2023-02-13T01:01:53.599Z,26.40
2023-02-13T01:02:53.478Z,27.20
2023-02-13T01:03:53.515Z,25.40
2023-02-13T01:04:53.473Z,28.80
2023-02-13T01:05:53.425Z,25.30
2023-02-13T01:06:53.412Z,25.20
2023-02-13T01:07:53.398Z,28.10
2023-02-13T01:08:53.379Z,28.00
2023-02-13T01:09:53.389Z,21.30
2023-02-13T01:10:53.344Z,26.50
2023-02-13T01:11:53.318Z,30.50
2023-02-13T01:12:53.328Z,30.40
2023-02-13T01:13:53.285Z,29.70
2023-02-13T01:14:53.299Z,28.60
2023-02-13T01:15:53.316Z,29.20
2023-02-13T01:16:54.246Z,30.60
2023-02-13T01:17:53.210Z,28.50
2023-02-13T01:18:53.197Z,41.20
2023-02-13T01:19:53.205Z,32.70
2023-02-13T01:20:53.161Z,33.90
2023-02-13T01:21:53.139Z,31.90
2023-02-13T01:22:53.122Z,41.60
2023-02-13T01:23:53.102Z,44.60
2023-02-13T01:24:53.116Z,27.40
2023-02-13T01:25:53.077Z,34.80
2023-02-13T01:26:53.047Z,39.70
2023-02-13T01:27:53.016Z,36.80
2023-02-13T01:28:54.015Z,37.20
2023-02-13T01:29:53.021Z,35.90
2023-02-13T01:30:52.980Z,29.80
2023-02-13T01:31:53.037Z,36.70
2023-02-13T01:32:52.931Z,34.00
2023-02-13T01:33:52.922Z,38.70
2023-02-13T01:34:52.923Z,43.30
2023-02-13T01:35:52.885Z,37.20
2023-02-13T01:36:52.861Z,37.80
2023-02-13T01:37:52.842Z,38.40
2023-02-13T01:38:52.832Z,40.20
2023-02-13T01:39:52.832Z,40.30
2023-02-13T01:40:52.789Z,36.70
2023-02-13T01:41:52.771Z,32.50
2023-02-13T01:42:52.750Z,37.70
2023-02-13T01:43:53.304Z,40.00
2023-02-13T01:44:52.742Z,43.00
2023-02-13T01:45:52.692Z,51.60
2023-02-13T01:46:52.712Z,87.20
2023-02-13T01:47:52.658Z,118.40
2023-02-13T01:48:55.274Z,80.30
2023-02-13T01:49:52.645Z,78.30
2023-02-13T01:50:52.603Z,122.80
2023-02-13T01:51:52.583Z,220.50
2023-02-13T01:52:52.561Z,121.80
2023-02-13T01:53:52.550Z,112.20
2023-02-13T01:54:52.555Z,401.50
2023-02-13T01:55:52.509Z,182.10
2023-02-13T01:56:52.496Z,99.80
2023-02-13T01:57:52.472Z,126.70
2023-02-13T01:58:52.452Z,153.50
2023-02-13T01:59:52.469Z,218.20
2023-02-13T02:00:53.160Z,178.40
2023-02-13T02:01:52.495Z,170.10
2023-02-13T02:02:52.530Z,277.90
2023-02-13T02:03:52.373Z,222.10
2023-02-13T02:04:52.373Z,171.00
2023-02-13T02:05:52.331Z,243.90
2023-02-13T02:06:52.308Z,233.80
2023-02-13T02:07:52.289Z,188.50
2023-02-13T02:08:52.267Z,202.80
2023-02-13T02:09:52.281Z,175.60
2023-02-13T02:10:52.238Z,219.30
2023-02-13T02:11:52.226Z,244.40
2023-02-13T02:12:52.208Z,293.10
2023-02-13T02:13:52.214Z,315.10
2023-02-13T02:14:53.191Z,273.40
2023-02-13T02:15:52.183Z,176.30
2023-02-13T02:16:52.125Z,209.20
2023-02-13T02:17:52.115Z,68.10
2023-02-13T02:18:52.097Z,172.40
2023-02-13T02:19:52.101Z,259.40
2023-02-13T02:20:52.059Z,289.70
2023-02-13T02:21:52.043Z,210.00
2023-02-13T02:22:52.046Z,129.20
2023-02-13T02:23:52.000Z,59.40
2023-02-13T02:24:52.015Z,36.10
2023-02-13T02:25:51.968Z,29.40
2023-02-13T02:26:51.941Z,19.40
2023-02-13T02:27:51.925Z,19.50
2023-02-13T02:28:51.937Z,19.50
2023-02-13T02:29:51.930Z,23.70
2023-02-13T02:30:51.971Z,22.00
2023-02-13T02:31:51.906Z,32.90
2023-02-13T02:32:51.832Z,21.40
2023-02-13T02:33:51.846Z,35.90
2023-02-13T02:34:51.822Z,23.90
2023-02-13T02:35:51.779Z,22.40
2023-02-13T02:36:51.756Z,30.30
2023-02-13T02:37:51.736Z,27.70
2023-02-13T02:38:51.720Z,25.50
2023-02-13T02:39:51.709Z,32.70
2023-02-13T02:40:51.709Z,27.90
2023-02-13T02:41:51.666Z,36.70
2023-02-13T02:42:51.645Z,59.10
2023-02-13T02:43:51.623Z,73.10
2023-02-13T02:44:51.600Z,48.20
2023-02-13T02:45:51.616Z,44.70
2023-02-13T02:46:51.591Z,46.70
2023-02-13T02:47:51.549Z,48.30
2023-02-13T02:48:52.268Z,37.30
2023-02-13T02:49:51.507Z,25.20
2023-02-13T02:50:51.513Z,26.40
2023-02-13T02:51:51.472Z,27.20
2023-02-13T02:52:51.450Z,55.60
2023-02-13T02:53:51.434Z,92.20
2023-02-13T02:54:51.414Z,133.80
2023-02-13T02:55:51.430Z,200.20
2023-02-13T02:56:51.373Z,178.10
2023-02-13T02:57:51.358Z,224.50
2023-02-13T02:58:51.336Z,242.30
2023-02-13T02:59:51.324Z,329.70
2023-02-13T03:00:51.351Z,233.50
2023-02-13T03:01:51.290Z,159.40
2023-02-13T03:02:51.256Z,254.30
2023-02-13T03:03:51.262Z,281.20
2023-02-13T03:04:51.234Z,489.50
2023-02-13T03:05:51.232Z,446.00
2023-02-13T03:06:51.174Z,462.60
2023-02-13T03:07:51.164Z,390.20
2023-02-13T03:08:51.135Z,415.00
2023-02-13T03:09:51.118Z,468.80
2023-02-13T03:10:51.131Z,358.00
2023-02-13T03:11:51.079Z,347.90
2023-02-13T03:12:51.062Z,286.00
2023-02-13T03:13:51.051Z,298.20
2023-02-13T03:14:51.041Z,281.00
2023-02-13T03:15:51.035Z,170.80
2023-02-13T03:16:50.990Z,205.90
2023-02-13T03:17:50.970Z,164.40
2023-02-13T03:18:50.949Z,167.60
2023-02-13T03:19:50.932Z,195.90
2023-02-13T03:20:50.941Z,199.80
2023-02-13T03:21:50.903Z,248.60
2023-02-13T03:22:50.876Z,160.00
2023-02-13T03:23:50.857Z,247.30
2023-02-13T03:24:50.840Z,311.10
2023-02-13T03:25:50.855Z,426.00
2023-02-13T03:26:50.905Z,357.90
2023-02-13T03:27:50.780Z,406.20
2023-02-13T03:28:50.764Z,374.10
2023-02-13T03:29:50.743Z,452.80
2023-02-13T03:30:50.776Z,393.70
2023-02-13T03:31:50.829Z,376.50
2023-02-13T03:32:50.689Z,497.80
2023-02-13T03:33:50.663Z,470.30
2023-02-13T03:34:50.644Z,467.90
2023-02-13T03:35:50.655Z,513.20
2023-02-13T03:36:50.606Z,548.30
2023-02-13T03:37:50.588Z,558.10
2023-02-13T03:38:50.581Z,471.80
2023-02-13T03:39:50.552Z,486.00
2023-02-13T03:40:50.563Z,442.50
2023-02-13T03:41:50.513Z,551.40
2023-02-13T03:42:50.493Z,478.20
2023-02-13T03:43:50.475Z,558.90
2023-02-13T03:44:50.457Z,528.70
2023-02-13T03:45:50.508Z,580.30
2023-02-13T03:46:50.423Z,545.00
2023-02-13T03:47:50.417Z,488.20
2023-02-13T03:48:50.378Z,509.80
2023-02-13T03:49:50.387Z,480.60
2023-02-13T03:50:50.375Z,512.90
2023-02-13T03:51:50.333Z,496.60
2023-02-13T03:52:50.317Z,467.80
2023-02-13T03:53:50.290Z,481.90
2023-02-13T03:54:50.270Z,511.20
2023-02-13T03:55:50.299Z,463.10
2023-02-13T03:56:50.231Z,537.90
2023-02-13T03:57:50.215Z,520.90
2023-02-13T03:58:50.195Z,518.90
2023-02-13T03:59:50.227Z,521.50
2023-02-13T04:00:50.265Z,531.60
2023-02-13T04:02:23.789Z,486.00
2023-02-13T04:02:50.135Z,533.50
2023-02-13T04:03:50.097Z,508.60
2023-02-13T04:04:51.100Z,450.90
2023-02-13T04:05:50.103Z,445.50
2023-02-13T04:06:50.048Z,437.50
2023-02-13T04:07:50.076Z,351.10
2023-02-13T04:08:50.044Z,413.80
2023-02-13T04:09:49.997Z,339.10
2023-02-13T04:10:50.621Z,312.10
2023-02-13T04:11:49.961Z,337.60
2023-02-13T04:12:49.934Z,343.50
2023-02-13T04:13:49.918Z,215.00
2023-02-13T04:14:49.902Z,294.60
2023-02-13T04:15:49.914Z,269.30
2023-02-13T04:16:49.902Z,198.00
2023-02-13T04:17:49.847Z,92.80
2023-02-13T04:18:49.845Z,115.80
2023-02-13T04:19:49.802Z,99.90
2023-02-13T04:20:49.820Z,103.90
2023-02-13T04:21:49.771Z,71.70
2023-02-13T04:22:49.748Z,178.10
2023-02-13T04:23:49.723Z,46.90
2023-02-13T04:24:50.721Z,42.10
2023-02-13T04:25:49.722Z,205.50
2023-02-13T04:26:49.678Z,234.60
2023-02-13T04:27:49.658Z,130.80
2023-02-13T04:28:49.651Z,151.90
2023-02-13T04:29:49.624Z,127.10
2023-02-13T04:30:49.739Z,174.20
2023-02-13T04:31:49.691Z,57.50
2023-02-13T04:32:49.602Z,116.50
2023-02-13T04:34:26.647Z,130.80
2023-02-13T04:34:49.531Z,237.00
2023-02-13T04:35:50.157Z,179.60
2023-02-13T04:36:49.499Z,291.20
2023-02-13T04:37:49.509Z,165.90
2023-02-13T04:38:49.458Z,59.10
2023-02-13T04:39:49.439Z,33.50
2023-02-13T04:40:49.459Z,99.90
2023-02-13T04:41:51.107Z,35.50
2023-02-13T04:42:49.389Z,37.30
2023-02-13T04:43:49.362Z,33.80
2023-02-13T04:44:49.355Z,27.50
2023-02-13T04:45:49.387Z,38.90
2023-02-13T04:46:49.340Z,25.80
2023-02-13T04:47:49.297Z,24.60
2023-02-13T04:48:49.274Z,29.30
2023-02-13T04:49:49.260Z,30.90
2023-02-13T04:50:49.265Z,41.20
2023-02-13T04:51:49.232Z,27.50
2023-02-13T04:52:50.202Z,24.10
2023-02-13T04:53:49.181Z,20.10
2023-02-13T04:54:49.164Z,27.80
2023-02-13T04:55:49.178Z,28.50
2023-02-13T04:56:49.126Z,32.30
2023-02-13T04:57:49.108Z,56.30
2023-02-13T04:58:49.127Z,32.40
2023-02-13T04:59:49.075Z,33.50
2023-02-13T05:00:49.095Z,37.30
2023-02-13T05:01:49.137Z,25.50
2023-02-13T05:02:49.021Z,30.90
2023-02-13T05:03:49.032Z,22.70
2023-02-13T05:04:49.064Z,31.20
2023-02-13T05:05:48.993Z,32.80
2023-02-13T05:06:48.947Z,29.00
2023-02-13T05:07:48.933Z,24.40
2023-02-13T05:08:48.913Z,36.50
2023-02-13T05:09:48.887Z,27.40
2023-02-13T05:10:48.898Z,34.00
2023-02-13T05:11:48.855Z,33.90
2023-02-13T05:12:48.837Z,30.70
2023-02-13T05:13:49.755Z,36.20
2023-02-13T05:14:48.813Z,31.80
2023-02-13T05:15:48.827Z,35.80
2023-02-13T05:16:48.758Z,37.70
2023-02-13T05:17:48.743Z,43.60
2023-02-13T05:18:48.723Z,67.20
2023-02-13T05:19:48.708Z,69.20
2023-02-13T05:20:48.729Z,67.70
2023-02-13T05:21:48.674Z,51.10
2023-02-13T05:22:48.653Z,46.00
2023-02-13T05:23:48.635Z,34.60
2023-02-13T05:24:48.615Z,39.40
2023-02-13T05:25:48.592Z,44.90
2023-02-13T05:26:48.610Z,76.00
2023-02-13T05:27:48.555Z,60.60
2023-02-13T05:28:48.542Z,58.70
2023-02-13T05:29:48.525Z,53.00
2023-02-13T05:30:48.514Z,46.90
2023-02-13T05:31:48.629Z,74.60
2023-02-13T05:32:48.466Z,55.70
2023-02-13T05:33:48.455Z,88.40
2023-02-13T05:34:48.428Z,58.00
2023-02-13T05:35:48.414Z,79.40
2023-02-13T05:36:48.422Z,55.10
2023-02-13T05:37:48.373Z,51.60
2023-02-13T05:38:48.367Z,92.70
2023-02-13T05:39:48.331Z,43.30
2023-02-13T05:40:48.311Z,45.90
2023-02-13T05:41:48.332Z,65.90
2023-02-13T05:42:48.287Z,58.80
2023-02-13T05:43:48.264Z,47.70
2023-02-13T05:44:48.240Z,70.30
2023-02-13T05:45:48.238Z,53.40
2023-02-13T05:46:48.233Z,110.10
2023-02-13T05:47:48.186Z,89.20
2023-02-13T05:48:48.173Z,38.20
2023-02-13T05:49:48.749Z,64.00
2023-02-13T05:50:48.141Z,42.70
2023-02-13T05:51:48.144Z,99.10
2023-02-13T05:52:48.093Z,106.00
2023-02-13T05:53:48.077Z,94.40
2023-02-13T05:54:48.072Z,89.00
2023-02-13T05:55:48.073Z,109.60
2023-02-13T05:56:48.738Z,61.30
2023-02-13T05:57:49.003Z,42.20
2023-02-13T05:58:47.982Z,38.00
2023-02-13T05:59:47.962Z,50.20
2023-02-13T06:00:47.956Z,57.00
2023-02-13T06:01:47.952Z,42.00
2023-02-13T06:02:47.979Z,53.20
2023-02-13T06:03:47.983Z,75.90
2023-02-13T06:04:48.743Z,85.40
2023-02-13T06:05:47.845Z,83.40
2023-02-13T06:06:47.853Z,73.30
2023-02-13T06:07:48.742Z,146.00
2023-02-13T06:08:47.790Z,77.00
2023-02-13T06:09:47.776Z,142.90
2023-02-13T06:10:47.751Z,167.50
2023-02-13T06:11:47.764Z,88.70
2023-02-13T06:12:47.713Z,103.20
2023-02-13T06:13:47.696Z,116.40
2023-02-13T06:14:47.702Z,177.20
2023-02-13T06:15:47.684Z,95.50
2023-02-13T06:16:47.639Z,89.80
2023-02-13T06:17:47.619Z,83.00
2023-02-13T06:18:47.600Z,90.80
2023-02-13T06:19:47.618Z,115.80
2023-02-13T06:20:47.574Z,54.70
2023-02-13T06:21:47.579Z,92.90
2023-02-13T06:22:47.529Z,94.10
2023-02-13T06:23:47.513Z,94.10
2023-02-13T06:24:47.491Z,149.00
2023-02-13T06:25:47.471Z,98.60
2023-02-13T06:26:47.480Z,61.40
2023-02-13T06:27:47.435Z,138.70
2023-02-13T06:28:47.433Z,100.30
2023-02-13T06:29:47.402Z,87.90
2023-02-13T06:30:47.445Z,100.90
2023-02-13T06:31:47.401Z,99.70
2023-02-13T06:32:47.349Z,119.40
2023-02-13T06:33:47.332Z,108.30
2023-02-13T06:34:47.309Z,189.60
2023-02-13T06:35:47.287Z,120.30
2023-02-13T06:36:47.298Z,240.60
2023-02-13T06:37:47.249Z,172.60
2023-02-13T06:38:47.232Z,296.40
2023-02-13T06:39:47.216Z,189.50
2023-02-13T06:40:47.208Z,286.00
2023-02-13T06:41:47.215Z,331.90
2023-02-13T06:42:47.168Z,379.30
2023-02-13T06:43:47.136Z,408.70
2023-02-13T06:44:47.133Z,501.80
2023-02-13T06:45:47.258Z,360.90
2023-02-13T06:46:47.194Z,313.60
2023-02-13T06:47:47.068Z,382.10
2023-02-13T06:48:47.045Z,405.70
2023-02-13T06:49:47.030Z,335.10
2023-02-13T06:50:47.023Z,269.10
2023-02-13T06:51:47.019Z,571.00
2023-02-13T06:52:46.973Z,545.60
2023-02-13T06:53:46.975Z,357.00
2023-02-13T06:54:48.227Z,346.70
2023-02-13T06:55:47.910Z,322.10
2023-02-13T06:56:46.918Z,204.80
2023-02-13T06:57:46.879Z,192.30
2023-02-13T06:58:46.856Z,286.00
2023-02-13T06:59:46.854Z,126.10
2023-02-13T07:00:46.858Z,355.80
2023-02-13T07:01:46.837Z,266.10
2023-02-13T07:02:46.823Z,200.60
2023-02-13T07:03:46.771Z,310.50
2023-02-13T07:04:46.746Z,131.40
2023-02-13T07:05:46.743Z,128.70
2023-02-13T07:06:46.743Z,270.90
2023-02-13T07:07:46.697Z,201.70
2023-02-13T07:08:46.672Z,224.90
2023-02-13T07:09:46.654Z,134.90
2023-02-13T07:10:46.638Z,96.50
2023-02-13T07:11:46.649Z,81.00
2023-02-13T07:12:56.798Z,54.90
2023-02-13T07:13:48.573Z,149.10
2023-02-13T07:14:46.592Z,211.00
2023-02-13T07:15:46.563Z,267.90
2023-02-13T07:16:46.550Z,81.80
2023-02-13T07:17:46.503Z,370.70
2023-02-13T07:18:46.495Z,431.00
2023-02-13T07:19:46.465Z,267.50
2023-02-13T07:20:46.442Z,146.00
2023-02-13T07:21:46.455Z,84.20
2023-02-13T07:22:46.413Z,158.20
2023-02-13T07:23:46.390Z,274.20
2023-02-13T07:24:46.374Z,155.60
2023-02-13T07:25:46.363Z,190.70
2023-02-13T07:26:46.431Z,300.00
2023-02-13T07:27:46.340Z,282.70
2023-02-13T07:28:46.300Z,365.90
2023-02-13T07:29:46.289Z,361.90
2023-02-13T07:30:46.266Z,325.20
2023-02-13T07:31:46.317Z,130.60
2023-02-13T07:32:46.224Z,227.10
2023-02-13T07:33:46.202Z,151.70
2023-02-13T07:35:00.641Z,172.20
2023-02-13T07:35:48.177Z,188.70
2023-02-13T07:36:46.192Z,196.80
2023-02-13T07:37:46.130Z,180.10
2023-02-13T07:38:46.117Z,168.90
2023-02-13T07:39:46.097Z,93.70
2023-02-13T07:40:46.092Z,143.30
2023-02-13T07:41:46.094Z,122.30
2023-02-13T07:42:46.043Z,153.40
2023-02-13T07:43:46.026Z,111.80
2023-02-13T07:44:46.004Z,83.10
2023-02-13T07:45:45.989Z,105.90
2023-02-13T07:46:45.986Z,118.90
2023-02-13T07:47:45.978Z,143.30
2023-02-13T07:48:45.942Z,100.20
2023-02-13T07:49:45.937Z,161.70
2023-02-13T07:50:45.897Z,83.90
2023-02-13T07:51:45.903Z,86.40
2023-02-13T07:52:45.856Z,112.30
2023-02-13T07:53:45.837Z,73.70
2023-02-13T07:54:45.828Z,105.90
2023-02-13T07:55:45.817Z,112.10
2023-02-13T07:56:45.783Z,99.60
2023-02-13T07:57:45.789Z,115.50
2023-02-13T07:58:45.747Z,75.20
2023-02-13T07:59:45.723Z,64.30
2023-02-13T08:00:45.710Z,58.80
2023-02-13T08:01:45.773Z,70.20
2023-02-13T08:02:45.671Z,59.50
2023-02-13T08:03:45.676Z,69.30
2023-02-13T08:04:45.640Z,74.00
2023-02-13T08:05:45.617Z,46.20
2023-02-13T08:06:45.608Z,55.90
2023-02-13T08:07:45.629Z,63.90
2023-02-13T08:08:45.569Z,51.80
2023-02-13T08:09:45.561Z,62.50
2023-02-13T08:10:45.532Z,61.90
2023-02-13T08:11:45.537Z,66.50
2023-02-13T08:12:45.502Z,68.20
2023-02-13T08:13:45.478Z,63.40
2023-02-13T08:14:45.452Z,58.30
2023-02-13T08:15:45.436Z,68.30
2023-02-13T08:16:45.476Z,48.20
2023-02-13T08:17:45.439Z,45.10
2023-02-13T08:18:45.388Z,49.60
2023-02-13T08:19:45.370Z,42.40
2023-02-13T08:20:45.373Z,56.20
2023-02-13T08:21:45.331Z,63.60
2023-02-13T08:22:45.342Z,51.70
2023-02-13T08:23:45.348Z,43.20
2023-02-13T08:24:45.271Z,49.30
2023-02-13T08:25:45.253Z,45.30
2023-02-13T08:26:45.232Z,57.20
2023-02-13T08:27:45.249Z,57.20
2023-02-13T08:28:45.325Z,46.50
2023-02-13T08:29:45.178Z,52.60
2023-02-13T08:30:45.252Z,61.30
2023-02-13T08:31:45.161Z,45.70
2023-02-13T08:32:53.782Z,49.30
2023-02-13T08:33:47.104Z,45.50
2023-02-13T08:34:45.087Z,45.10
2023-02-13T08:35:45.064Z,39.70
2023-02-13T08:36:45.045Z,40.20
2023-02-13T08:37:46.627Z,42.20
2023-02-13T08:38:45.013Z,52.80
2023-02-13T08:39:45.701Z,41.30
2023-02-13T08:40:44.969Z,45.30
2023-02-13T08:41:44.949Z,40.80
2023-02-13T08:42:44.955Z,36.30
2023-02-13T08:43:44.917Z,41.80
2023-02-13T08:44:44.893Z,41.20
2023-02-13T08:45:44.918Z,39.70
2023-02-13T08:46:44.851Z,43.00
2023-02-13T08:47:44.862Z,42.50
2023-02-13T08:48:44.811Z,42.40
2023-02-13T08:49:44.799Z,40.20
2023-02-13T08:50:44.784Z,50.70
2023-02-13T08:51:44.763Z,37.40
2023-02-13T08:52:44.776Z,35.40
2023-02-13T08:53:44.725Z,44.80
2023-02-13T08:54:44.707Z,38.10
2023-02-13T08:55:44.686Z,35.60
2023-02-13T08:56:44.669Z,36.90
2023-02-13T08:57:44.679Z,39.10
2023-02-13T08:58:44.637Z,39.50
2023-02-13T08:59:44.617Z,37.30
2023-02-13T09:00:44.599Z,40.10
2023-02-13T09:01:44.634Z,35.20
2023-02-13T09:02:45.638Z,32.80
2023-02-13T09:03:44.545Z,32.10
2023-02-13T09:04:44.520Z,30.80
2023-02-13T09:05:44.504Z,27.90
2023-02-13T09:06:44.488Z,30.40
2023-02-13T09:07:44.503Z,29.20
2023-02-13T09:08:44.451Z,27.20
2023-02-13T09:09:44.433Z,29.20
2023-02-13T09:10:44.416Z,25.80
2023-02-13T09:11:44.390Z,24.90
2023-02-13T09:12:44.404Z,29.20
2023-02-13T09:13:44.364Z,30.30
2023-02-13T09:14:44.338Z,29.30
2023-02-13T09:15:44.318Z,27.30
2023-02-13T09:16:44.338Z,27.70
2023-02-13T09:17:44.312Z,27.90
2023-02-13T09:18:44.263Z,29.20
2023-02-13T09:19:44.255Z,27.00
2023-02-13T09:20:44.234Z,30.40
2023-02-13T09:21:44.214Z,26.70
2023-02-13T09:22:44.240Z,28.90
2023-02-13T09:23:44.201Z,25.30
2023-02-13T09:24:44.150Z,25.10
2023-02-13T09:25:48.096Z,23.80
2023-02-13T09:26:44.126Z,24.70
2023-02-13T09:27:44.146Z,23.90
2023-02-13T09:28:44.221Z,27.50
2023-02-13T09:29:44.083Z,26.20
2023-02-13T09:30:44.115Z,24.50
2023-02-13T09:31:44.125Z,23.80
2023-02-13T09:32:44.059Z,23.90
2023-02-13T09:33:44.013Z,23.90
2023-02-13T09:34:43.990Z,24.00
2023-02-13T09:35:43.968Z,23.80
2023-02-13T09:36:43.951Z,22.50
2023-02-13T09:37:43.972Z,23.80
2023-02-13T09:38:43.926Z,23.10
2023-02-13T09:39:43.900Z,24.00
2023-02-13T09:40:43.885Z,21.80
2023-02-13T09:41:43.895Z,22.80
2023-02-13T09:42:43.881Z,20.40
2023-02-13T09:43:43.841Z,18.50
2023-02-13T09:44:43.816Z,18.90
2023-02-13T09:45:43.795Z,18.20
2023-02-13T09:46:43.808Z,18.40
2023-02-13T09:47:43.793Z,18.30
2023-02-13T09:48:43.743Z,18.90
2023-02-13T09:49:43.735Z,17.70
2023-02-13T09:50:43.711Z,17.20
2023-02-13T09:51:44.696Z,16.30
2023-02-13T09:52:43.706Z,15.50
2023-02-13T09:53:43.674Z,15.60
2023-02-13T09:54:43.640Z,14.70
2023-02-13T09:55:43.619Z,16.30
2023-02-13T09:56:43.595Z,15.00
2023-02-13T09:57:43.606Z,13.40
2023-02-13T09:58:43.554Z,13.40
2023-02-13T09:59:43.532Z,12.80
2023-02-13T10:00:43.517Z,12.80
2023-02-13T10:01:43.501Z,12.30
2023-02-13T10:02:43.500Z,13.20
2023-02-13T10:03:43.444Z,14.20
2023-02-13T10:04:43.469Z,13.80
2023-02-13T10:05:43.400Z,13.70
2023-02-13T10:06:43.457Z,14.20
2023-02-13T10:07:43.395Z,12.90
2023-02-13T10:08:43.331Z,12.30
2023-02-13T10:09:43.313Z,12.10
2023-02-13T10:10:43.299Z,13.80
2023-02-13T10:11:43.301Z,12.90
2023-02-13T10:12:43.284Z,14.10
2023-02-13T10:13:43.235Z,11.80
2023-02-13T10:14:43.206Z,12.60
2023-02-13T10:15:43.239Z,13.60
2023-02-13T10:16:43.179Z,13.10
2023-02-13T10:17:43.175Z,14.50
2023-02-13T10:18:43.163Z,12.40
2023-02-13T10:19:43.105Z,13.50
2023-02-13T10:20:44.081Z,13.80
2023-02-13T10:21:43.063Z,13.10
2023-02-13T10:22:43.049Z,13.20
2023-02-13T10:23:43.053Z,14.10
2023-02-13T10:24:42.999Z,11.60
2023-02-13T10:25:42.983Z,14.50
2023-02-13T10:26:42.960Z,14.50
2023-02-13T10:27:42.944Z,14.70
2023-02-13T10:28:43.003Z,13.50
2023-02-13T10:29:42.913Z,13.40
2023-02-13T10:30:43.952Z,12.90
2023-02-13T10:31:42.980Z,13.10
2023-02-13T10:32:42.843Z,13.10
2023-02-13T10:33:42.853Z,15.80
2023-02-13T10:34:42.805Z,13.50
2023-02-13T10:35:42.785Z,13.70
2023-02-13T10:36:42.757Z,14.80
2023-02-13T10:37:42.783Z,14.10
2023-02-13T10:38:42.751Z,14.50
2023-02-13T10:39:42.701Z,14.10
2023-02-13T10:40:42.691Z,14.20
2023-02-13T10:41:42.661Z,14.60
2023-02-13T10:42:42.641Z,16.20
2023-02-13T10:43:42.653Z,14.20
2023-02-13T10:44:42.604Z,15.00
2023-02-13T10:45:42.582Z,14.80
2023-02-13T10:46:42.622Z,15.40
2023-02-13T10:47:42.537Z,14.40
2023-02-13T10:48:43.060Z,14.10
2023-02-13T10:49:42.502Z,14.50
2023-02-13T10:50:42.478Z,14.40
2023-02-13T10:51:42.459Z,14.60
2023-02-13T10:52:42.439Z,15.80
2023-02-13T10:53:42.445Z,15.70
2023-02-13T10:54:42.398Z,14.90
2023-02-13T10:55:42.384Z,14.30
2023-02-13T10:56:42.361Z,16.00
2023-02-13T10:57:42.336Z,13.70
2023-02-13T10:58:42.440Z,15.50
2023-02-13T10:59:43.179Z,15.50
2023-02-13T11:00:43.193Z,13.00
2023-02-13T11:01:44.336Z,15.20
2023-02-13T11:02:42.236Z,15.90
2023-02-13T11:03:42.247Z,14.00
2023-02-13T11:04:42.217Z,13.50
2023-02-13T11:05:42.172Z,15.00
2023-02-13T11:06:42.252Z,15.50
2023-02-13T11:07:42.135Z,14.90
2023-02-13T11:08:42.147Z,15.30
2023-02-13T11:09:42.089Z,14.90
2023-02-13T11:10:42.076Z,14.20
2023-02-13T11:11:42.058Z,13.60
2023-02-13T11:12:42.077Z,14.80
2023-02-13T11:13:42.033Z,15.10
2023-02-13T11:14:41.983Z,14.70
2023-02-13T11:15:41.981Z,13.50
2023-02-13T11:16:41.937Z,14.70
2023-02-13T11:17:41.915Z,14.20
2023-02-13T11:18:41.928Z,15.30
2023-02-13T11:19:41.877Z,14.90
2023-02-13T11:20:41.849Z,13.90
2023-02-13T11:21:42.551Z,13.10
2023-02-13T11:22:41.805Z,13.30
2023-02-13T11:23:41.817Z,13.40
2023-02-13T11:24:41.782Z,14.80
2023-02-13T11:25:41.748Z,14.20
2023-02-13T11:26:41.717Z,12.90
2023-02-13T11:27:42.705Z,14.30
2023-02-13T11:28:41.735Z,12.90
2023-02-13T11:29:41.673Z,14.30
2023-02-13T11:30:41.729Z,14.30
2023-02-13T11:31:41.669Z,16.40
2023-02-13T11:32:41.596Z,14.40
2023-02-13T11:33:42.605Z,12.90
2023-02-13T11:34:41.553Z,13.30
2023-02-13T11:35:42.510Z,14.40
2023-02-13T11:36:41.505Z,14.80
2023-02-13T11:37:42.168Z,13.70
2023-02-13T11:38:41.499Z,12.50
2023-02-13T11:39:41.452Z,13.10
2023-02-13T11:40:41.422Z,12.90
2023-02-13T11:41:41.397Z,15.00
2023-02-13T11:42:41.397Z,13.10
2023-02-13T11:43:41.382Z,13.30
2023-02-13T11:44:41.334Z,14.20
2023-02-13T11:45:41.309Z,12.50
2023-02-13T11:46:41.309Z,13.60
2023-02-13T11:47:41.273Z,14.40
2023-02-13T11:48:41.286Z,14.60
2023-02-13T11:49:41.225Z,13.30
2023-02-13T11:50:41.197Z,14.50
2023-02-13T11:51:41.177Z,13.30
2023-02-13T11:52:41.166Z,12.70
2023-02-13T11:53:41.166Z,12.30
2023-02-13T11:54:41.112Z,13.10
2023-02-13T11:55:41.094Z,12.40
2023-02-13T11:56:55.710Z,12.90
2023-02-13T11:57:43.046Z,12.40
2023-02-13T11:58:41.108Z,13.90
2023-02-13T11:59:41.008Z,13.80
2023-02-13T12:00:40.982Z,11.80
2023-02-13T12:01:40.994Z,15.30
2023-02-13T12:02:41.028Z,13.50
2023-02-13T12:03:40.959Z,13.80
2023-02-13T12:04:40.902Z,12.10
2023-02-13T12:05:40.879Z,11.90
2023-02-13T12:06:40.857Z,11.80
2023-02-13T12:07:40.834Z,13.30
2023-02-13T12:08:40.844Z,12.90
2023-02-13T12:09:40.792Z,11.80
2023-02-13T12:10:40.784Z,12.50
2023-02-13T12:11:40.753Z,12.30
2023-02-13T12:12:40.725Z,12.70
2023-02-13T12:13:40.735Z,12.70
2023-02-13T12:14:40.686Z,13.30
2023-02-13T12:15:40.663Z,12.50
2023-02-13T12:16:40.718Z,12.90
2023-02-13T12:17:40.614Z,12.00
2023-02-13T12:18:40.628Z,12.50
2023-02-13T12:19:40.571Z,13.50
2023-02-13T12:20:40.553Z,10.40
2023-02-13T12:21:40.527Z,13.40
2023-02-13T12:22:40.515Z,11.40
2023-02-13T12:23:40.526Z,11.80
2023-02-13T12:24:40.492Z,14.10
2023-02-13T12:25:40.454Z,12.50
2023-02-13T12:26:40.420Z,11.60
2023-02-13T12:27:40.399Z,12.50
2023-02-13T12:28:40.393Z,12.10
2023-02-13T12:29:40.428Z,12.30
2023-02-13T12:30:40.421Z,11.60
2023-02-13T12:31:40.410Z,13.00
2023-02-13T12:32:40.287Z,11.00
2023-02-13T12:33:40.308Z,12.30
2023-02-13T12:34:40.244Z,12.30
2023-02-13T12:35:40.221Z,11.80
2023-02-13T12:36:40.199Z,12.00
2023-02-13T12:37:40.179Z,11.80
2023-02-13T12:38:40.185Z,11.80
2023-02-13T12:39:40.132Z,11.80
2023-02-13T12:40:40.105Z,12.40
2023-02-13T12:41:40.085Z,13.40
2023-02-13T12:42:40.060Z,11.00
2023-02-13T12:43:40.077Z,11.60
2023-02-13T12:44:40.031Z,12.10